PRALS SNIO-SNIB
Flight info
| Callsign | PRALS |
|---|---|
| Flight time | N/A |
| Altitude | 4500 |
| Route | DCT 1119S03857W 1135S03915W 1144S03924W 1155S03937W 1203S03946W 1211S03955W 1219S04004W DCT |
| Aircraft | C172/L-SDFG/C |
Departure
| Time | N/A |
|---|---|
| Airport | Cipó Airport (SNIO) |
Arrival
| Time | 2026-04-25 21:07 |
|---|---|
| Airport | Itaberaba Airport (SNIB) |
| Time | Latitude | Longitude | Altitude | Speed | Heading |
|---|---|---|---|---|---|
| 2026-04-25 20:42 | -12.23886 | -39.88012 | 4460 ft | 116 kts | 216° |
| 2026-04-25 20:42 | -12.24479 | -39.88541 | 4460 ft | 111 kts | 216° |
| 2026-04-25 20:42 | -12.25057 | -39.89068 | 4461 ft | 112 kts | 216° |
| 2026-04-25 20:43 | -12.25644 | -39.89600 | 4503 ft | 110 kts | 216° |
| 2026-04-25 20:43 | -12.26221 | -39.90121 | 4513 ft | 112 kts | 216° |
| 2026-04-25 20:43 | -12.26805 | -39.90665 | 4517 ft | 114 kts | 217° |
| 2026-04-25 20:43 | -12.27354 | -39.91257 | 4511 ft | 115 kts | 222° |
| 2026-04-25 20:44 | -12.27891 | -39.91859 | 4519 ft | 116 kts | 225° |
| 2026-04-25 20:44 | -12.28367 | -39.92538 | 4519 ft | 118 kts | 230° |
| 2026-04-25 20:44 | -12.28811 | -39.93232 | 4514 ft | 118 kts | 231° |
| 2026-04-25 20:44 | -12.29258 | -39.93939 | 4519 ft | 119 kts | 231° |
| 2026-04-25 20:45 | -12.29716 | -39.94645 | 4520 ft | 119 kts | 232° |
| 2026-04-25 20:45 | -12.30172 | -39.95354 | 4523 ft | 120 kts | 231° |
| 2026-04-25 20:45 | -12.30623 | -39.96056 | 4523 ft | 119 kts | 232° |
| 2026-04-25 20:45 | -12.31083 | -39.96764 | 4521 ft | 120 kts | 230° |
| 2026-04-25 20:46 | -12.31537 | -39.97480 | 4524 ft | 120 kts | 231° |
| 2026-04-25 20:46 | -12.31997 | -39.98190 | 4521 ft | 120 kts | 231° |
| 2026-04-25 20:46 | -12.32456 | -39.98899 | 4525 ft | 120 kts | 231° |
| 2026-04-25 20:46 | -12.32910 | -39.99615 | 4529 ft | 120 kts | 232° |
| 2026-04-25 20:47 | -12.33360 | -40.00326 | 4529 ft | 119 kts | 232° |
| 2026-04-25 20:47 | -12.33810 | -40.01048 | 4525 ft | 120 kts | 232° |
| 2026-04-25 20:47 | -12.34266 | -40.01763 | 4525 ft | 119 kts | 231° |
| 2026-04-25 20:47 | -12.34709 | -40.02470 | 4517 ft | 118 kts | 232° |
| 2026-04-25 20:48 | -12.35153 | -40.03178 | 4523 ft | 118 kts | 231° |
| 2026-04-25 20:48 | -12.35600 | -40.03881 | 4516 ft | 119 kts | 232° |
| 2026-04-25 20:48 | -12.36047 | -40.04589 | 4524 ft | 118 kts | 232° |
| 2026-04-25 20:48 | -12.36492 | -40.05297 | 4525 ft | 119 kts | 232° |
| 2026-04-25 20:49 | -12.36943 | -40.06008 | 4523 ft | 119 kts | 232° |
| 2026-04-25 20:49 | -12.37393 | -40.06720 | 4522 ft | 120 kts | 230° |
| 2026-04-25 20:49 | -12.37845 | -40.07436 | 4515 ft | 119 kts | 232° |
| 2026-04-25 20:49 | -12.38302 | -40.08141 | 4525 ft | 119 kts | 231° |
| 2026-04-25 20:50 | -12.38760 | -40.08855 | 4528 ft | 121 kts | 231° |
| 2026-04-25 20:50 | -12.39223 | -40.09572 | 4527 ft | 121 kts | 232° |
| 2026-04-25 20:50 | -12.39687 | -40.10291 | 4529 ft | 121 kts | 231° |
| 2026-04-25 20:50 | -12.40153 | -40.11009 | 4530 ft | 121 kts | 232° |
| 2026-04-25 20:51 | -12.40625 | -40.11729 | 4523 ft | 122 kts | 233° |
| 2026-04-25 20:51 | -12.41091 | -40.12447 | 4526 ft | 122 kts | 232° |
| 2026-04-25 20:51 | -12.41560 | -40.13169 | 4530 ft | 122 kts | 232° |
| 2026-04-25 20:51 | -12.42030 | -40.13891 | 4525 ft | 122 kts | 232° |
| 2026-04-25 20:52 | -12.42494 | -40.14608 | 4525 ft | 123 kts | 232° |
| 2026-04-25 20:52 | -12.42814 | -40.15101 | 4521 ft | 123 kts | 232° |
| 2026-04-25 20:52 | -12.43433 | -40.16059 | 4488 ft | 118 kts | 232° |
| 2026-04-25 20:52 | -12.43860 | -40.16739 | 4478 ft | 110 kts | 231° |
| 2026-04-25 20:53 | -12.44269 | -40.17383 | 4402 ft | 109 kts | 233° |
| 2026-04-25 20:53 | -12.44695 | -40.18044 | 4277 ft | 114 kts | 231° |
| 2026-04-25 20:53 | -12.45130 | -40.18727 | 4155 ft | 116 kts | 232° |
| 2026-04-25 20:53 | -12.45572 | -40.19425 | 4040 ft | 118 kts | 233° |
| 2026-04-25 20:54 | -12.45993 | -40.20151 | 3916 ft | 119 kts | 235° |
| 2026-04-25 20:54 | -12.46388 | -40.20894 | 3801 ft | 119 kts | 239° |
| 2026-04-25 20:54 | -12.46768 | -40.21656 | 3681 ft | 122 kts | 239° |
| 2026-04-25 20:54 | -12.47147 | -40.22439 | 3568 ft | 123 kts | 239° |
| 2026-04-25 20:55 | -12.47522 | -40.23228 | 3449 ft | 124 kts | 238° |
| 2026-04-25 20:55 | -12.47906 | -40.24020 | 3327 ft | 124 kts | 239° |
| 2026-04-25 20:55 | -12.48295 | -40.24814 | 3214 ft | 125 kts | 238° |
| 2026-04-25 20:55 | -12.48681 | -40.25615 | 3087 ft | 126 kts | 239° |
| 2026-04-25 20:56 | -12.49067 | -40.26418 | 2970 ft | 126 kts | 236° |
| 2026-04-25 20:56 | -12.49558 | -40.27152 | 2846 ft | 124 kts | 229° |
| 2026-04-25 20:56 | -12.50055 | -40.27863 | 2729 ft | 122 kts | 229° |
| 2026-04-25 20:56 | -12.50551 | -40.28573 | 2609 ft | 123 kts | 229° |
| 2026-04-25 20:57 | -12.51056 | -40.29284 | 2486 ft | 125 kts | 229° |
| 2026-04-25 20:57 | -12.51572 | -40.29990 | 2366 ft | 124 kts | 229° |
| 2026-04-25 20:57 | -12.52204 | -40.30523 | 2232 ft | 114 kts | 182° |
| 2026-04-25 20:57 | -12.52829 | -40.30258 | 2218 ft | 92 kts | 138° |
| 2026-04-25 20:58 | -12.53276 | -40.29846 | 2211 ft | 87 kts | 116° |
| 2026-04-25 20:58 | -12.53078 | -40.29283 | 2217 ft | 102 kts | 38° |
| 2026-04-25 20:58 | -12.52373 | -40.29199 | 2211 ft | 114 kts | 335° |
| 2026-04-25 20:58 | -12.52066 | -40.29900 | 2211 ft | 115 kts | 253° |
| 2026-04-25 20:59 | -12.52629 | -40.30350 | 2213 ft | 102 kts | 169° |
| 2026-04-25 20:59 | -12.53042 | -40.29902 | 2214 ft | 93 kts | 89° |
| 2026-04-25 20:59 | -12.52584 | -40.29494 | 2210 ft | 104 kts | 5° |
| 2026-04-25 20:59 | -12.52062 | -40.29984 | 2213 ft | 117 kts | 278° |
| 2026-04-25 21:00 | -12.52397 | -40.30662 | 2212 ft | 105 kts | 197° |
| 2026-04-25 21:00 | -12.52627 | -40.30706 | 2211 ft | 96 kts | 169° |
| 2026-04-25 21:00 | -12.52132 | -40.30215 | 2214 ft | 104 kts | 297° |
| 2026-04-25 21:01 | -12.52302 | -40.30843 | 2213 ft | 93 kts | 200° |
| 2026-04-25 21:01 | -12.52773 | -40.30683 | 2218 ft | 74 kts | 116° |
| 2026-04-25 21:01 | -12.53045 | -40.30231 | 2224 ft | 75 kts | 120° |
| 2026-04-25 21:01 | -12.53324 | -40.29778 | 2225 ft | 75 kts | 120° |
| 2026-04-25 21:02 | -12.53599 | -40.29331 | 2230 ft | 73 kts | 120° |
| 2026-04-25 21:02 | -12.53887 | -40.28861 | 2232 ft | 83 kts | 119° |
| 2026-04-25 21:02 | -12.54203 | -40.28350 | 2232 ft | 86 kts | 120° |
| 2026-04-25 21:02 | -12.54524 | -40.27828 | 2228 ft | 85 kts | 120° |
| 2026-04-25 21:03 | -12.54823 | -40.27338 | 2224 ft | 78 kts | 121° |
| 2026-04-25 21:03 | -12.55083 | -40.26969 | 2313 ft | 60 kts | 121° |
| 2026-04-25 21:03 | -12.55297 | -40.26507 | 2152 ft | 78 kts | 109° |
| 2026-04-25 21:03 | -12.55495 | -40.25991 | 2085 ft | 78 kts | 109° |
| 2026-04-25 21:04 | -12.55662 | -40.25478 | 2083 ft | 73 kts | 107° |
| 2026-04-25 21:04 | -12.55748 | -40.24962 | 2070 ft | 74 kts | 87° |
| 2026-04-25 21:04 | -12.55508 | -40.24466 | 2052 ft | 86 kts | 53° |
| 2026-04-25 21:04 | -12.55033 | -40.24112 | 2132 ft | 83 kts | 34° |
| 2026-04-25 21:05 | -12.54522 | -40.23968 | 2176 ft | 87 kts | 15° |
| 2026-04-25 21:05 | -12.53900 | -40.23987 | 2204 ft | 89 kts | 2° |
| 2026-04-25 21:05 | -12.53337 | -40.24029 | 2097 ft | 79 kts | 9° |
| 2026-04-25 21:05 | -12.52771 | -40.24063 | 1867 ft | 83 kts | 360° |
| 2026-04-25 21:06 | -12.52204 | -40.24125 | 1656 ft | 82 kts | 5° |
| 2026-04-25 21:06 | -12.51677 | -40.24291 | 1520 ft | 81 kts | 329° |
| 2026-04-25 21:06 | -12.51264 | -40.24698 | 1359 ft | 85 kts | 314° |
| 2026-04-25 21:06 | -12.51023 | -40.25017 | 1251 ft | 84 kts | 312° |
| 2026-04-25 21:07 | -12.50658 | -40.25702 | 1147 ft | 81 kts | 298° |
| 2026-04-25 21:07 | -12.50395 | -40.26217 | 1061 ft | 83 kts | 298° |
| 2026-04-25 21:07 | -12.50135 | -40.26720 | 929 ft | 70 kts | 300° |
| 2026-04-25 21:07 | -12.49959 | -40.27062 | 935 ft | 39 kts | 301° |
| 2026-04-25 21:08 | -12.49843 | -40.27288 | 941 ft | 26 kts | 306° |
| 2026-04-25 21:08 | -12.49845 | -40.27301 | 941 ft | 16 kts | 116° |
| 2026-04-25 21:08 | -12.49918 | -40.27152 | 937 ft | 30 kts | 117° |
| 2026-04-25 21:08 | -12.50007 | -40.26955 | 933 ft | 31 kts | 120° |
| 2026-04-25 21:09 | -12.50165 | -40.26863 | 926 ft | 1 kts | 205° |
| 2026-04-25 21:09 | -12.50156 | -40.26824 | 926 ft | 8 kts | 76° |
| 2026-04-25 21:09 | -12.50165 | -40.26801 | 926 ft | 1 kts | 297° |